EW4745 Weather Reports


Display with metric or nautical units.
time (UTC)temp
F
wind
direction
speed
MPH
gust
MPH
rain 1hr
in
rain 24hr
in
rain mn
in
humidity
%
barometer
mb
20220528001909 92 225 1.0 1.0 0.00 0.00 0.00 44 1012.5
20220528001846 92 249 1.0 4.0 0.00 0.00 0.00 44 1011.3
20220528001420 93 199 0.0 3.0 0.00 0.00 0.00 43 1012.5
20220528001339 93 199 1.0 4.0 0.00 0.00 0.00 43 1011.3
20220528000914 93 219 1.0 1.0 0.00 0.00 0.00 43 1012.5
20220528000832 93 259 1.0 6.0 0.00 0.00 0.00 43 1011.2
20220528000411 93 243 1.0 2.0 0.00 0.00 0.00 42 1012.5
20220528000328 93 221 2.0 7.0 0.00 0.00 0.00 42 1011.2
20220527235910 93 292 1.0 4.0 0.00 0.00 0.00 42 1012.5
20220527235820 93 173 2.0 8.0 0.00 0.00 0.00 42 1011.2
20220527235414 94 235 0.0 4.0 0.00 0.00 0.00 41 1012.2
20220527235314 94 315 1.0 8.0 0.00 0.00 0.00 41 1011.2
20220527234913 94 233 0.0 3.0 0.00 0.00 0.00 41 1012.2
20220527234808 94 236 1.0 3.0 0.00 0.00 0.00 41 1011.1
20220527234411 95 282 0.0 3.0 0.00 0.00 0.00 42 1012.2
20220527234302 94 193 1.0 3.0 0.00 0.00 0.00 42 1011.1
20220527233912 95 217 0.0 2.0 0.00 0.00 0.00 43 1012.2
20220527233756 95 301 1.0 3.0 0.00 0.00 0.00 43 1011.1
20220527233413 95 238 2.0 2.0 0.00 0.00 0.00 44 1012.2
20220527233251 95 216 2.0 8.0 0.00 0.00 0.00 44 1011.1
20220527232912 95 213 2.0 3.0 0.00 0.00 0.00 44 1012.2
20220527232743 95 240 1.0 8.0 0.00 0.00 0.00 44 1011.1
20220527232417 95 157 1.0 7.0 0.00 0.00 0.00 46 1012.2
20220527232238 95 198 1.0 9.0 0.00 0.00 0.00 46 1011.1
20220527231912 95 259 2.0 4.0 0.00 0.00 0.00 45 1012.2
20220527231732 96 261 2.0 9.0 0.00 0.00 0.00 46 1011.2
20220527231346 96 204 1.0 2.0 0.00 0.00 0.00 44 1012.2
20220527231226 96 207 1.0 5.0 0.00 0.00 0.00 44 1011.2
20220527230842 96 254 3.0 3.0 0.00 0.00 0.00 44 1012.5
20220527230720 96 263 2.0 5.0 0.00 0.00 0.00 44 1011.3
20220527230342 96 211 0.0 5.0 0.00 0.00 0.00 44 1012.5
20220527230214 96 261 2.0 4.0 0.00 0.00 0.00 44 1011.3
20220527225837 97 250 2.0 4.0 0.00 0.00 0.00 44 1012.5
20220527225708 97 215 1.0 4.0 0.00 0.00 0.00 44 1011.3
20220527225315 97 264 0.0 2.0 0.00 0.00 0.00 44 1012.5
20220527225202 97 227 1.0 4.0 0.00 0.00 0.00 44 1011.4
20220527224816 97 200 0.0 4.0 0.00 0.00 0.00 43 1012.9
20220527224700 97 226 1.0 4.0 0.00 0.00 0.00 44 1011.5
20220527224317 98 225 3.0 3.0 0.00 0.00 0.00 44 1012.5
20220527224150 98 234 1.0 3.0 0.00 0.00 0.00 45 1011.5
20220527223812 98 232 1.0 2.0 0.00 0.00 0.00 45 1012.5
20220527223644 98 148 1.0 4.0 0.00 0.00 0.00 45 1011.5
20220527223415 98 290 1.0 3.0 0.00 0.00 0.00 45 1012.9
20220527223139 98 229 1.0 6.0 0.00 0.00 0.00 45 1011.5
20220527222811 98 128 1.0 4.0 0.00 0.00 0.00 45 1012.9
20220527222633 98 264 1.0 6.0 0.00 0.00 0.00 45 1011.5
20220527222315 99 264 2.0 6.0 0.00 0.00 0.00 45 1012.9
20220527222126 99 246 1.0 3.0 0.00 0.00 0.00 44 1011.6
20220527221809 99 329 1.0 3.0 0.00 0.00 0.00 44 1012.9
20220527221620 99 242 1.0 7.0 0.00 0.00 0.00 44 1011.6
20220527221317 99 182 2.0 2.0 0.00 0.00 0.00 45 1012.9
20220527221113 100 247 1.0 7.0 0.00 0.00 0.00 44 1011.6
20220527220810 100 232 0.0 3.0 0.00 0.00 0.00 44 1012.9
20220527220608 100 251 1.0 4.0 0.00 0.00 0.00 44 1011.7
20220527220314 100 72 3.0 4.0 0.00 0.00 0.00 41 1012.9
20220527220105 100 69 1.0 3.0 0.00 0.00 0.00 42 1011.7
20220527215813 100 55 0.0 1.0 0.00 0.00 0.00 42 1012.9
20220527215556 100 86 1.0 8.0 0.00 0.00 0.00 42 1011.8
20220527215314 100 75 1.0 3.0 0.00 0.00 0.00 42 1012.9
20220527215050 100 164 1.0 8.0 0.00 0.00 0.00 43 1011.8
20220527214811 100 209 2.0 8.0 0.00 0.00 0.00 43 1012.9
20220527214544 100 51 2.0 5.0 0.00 0.00 0.00 43 1011.9
20220527214311 100 51 2.0 4.0 0.00 0.00 0.00 41 1013.2
20220527214039 100 208 2.0 5.0 0.00 0.00 0.00 40 1012.1
20220527213919 101 257 2.0 5.0 0.00 0.00 0.00 38 1013.2
20220527213534 101 267 1.0 6.0 0.00 0.00 0.00 39 1012.2
20220527213319 101 235 0.0 5.0 0.00 0.00 0.00 38 1013.2
20220527213027 101 159 1.0 6.0 0.00 0.00 0.00 37 1012.2
20220527212817 101 121 1.0 6.0 0.00 0.00 0.00 38 1013.5
20220527212520 101 101 1.0 4.0 0.00 0.00 0.00 37 1012.3
20220527212313 101 236 0.0 3.0 0.00 0.00 0.00 36 1013.5
20220527212014 101 209 1.0 4.0 0.00 0.00 0.00 35 1012.4
20220527211815 102 57 3.0 3.0 0.00 0.00 0.00 34 1013.5
20220527211510 102 226 1.0 4.0 0.00 0.00 0.00 36 1012.4
20220527211415 102 194 1.0 1.0 0.00 0.00 0.00 37 1013.5
20220527211003 101 170 2.0 7.0 0.00 0.00 0.00 37 1012.5
20220527210811 101 171 1.0 1.0 0.00 0.00 0.00 39 1013.5
20220527210458 101 240 2.0 7.0 0.00 0.00 0.00 36 1012.5
20220527210413 101 210 2.0 2.0 0.00 0.00 0.00 36 1013.9
20220527205950 101 239 2.0 6.0 0.00 0.00 0.00 36 1012.6
20220527205814 101 154 2.0 2.0 0.00 0.00 0.00 37 1013.9
20220527205444 101 235 2.0 9.0 0.00 0.00 0.00 36 1012.6
20220527205314 102 254 3.0 6.0 0.00 0.00 0.00 35 1013.9
20220527204938 101 255 2.0 9.0 0.00 0.00 0.00 36 1012.7
20220527204811 102 269 2.0 4.0 0.00 0.00 0.00 36 1013.9
20220527204432 101 168 1.0 4.0 0.00 0.00 0.00 37 1012.7
20220527204317 101 225 1.0 4.0 0.00 0.00 0.00 37 1013.9
20220527203926 101 229 1.0 4.0 0.00 0.00 0.00 36 1012.8
20220527203814 102 273 0.0 3.0 0.00 0.00 0.00 36 1013.9
20220527203420 101 106 1.0 5.0 0.00 0.00 0.00 36 1012.9
20220527203415 101 204 0.0 2.0 0.00 0.00 0.00 37 1013.9
20220527202917 101 30 2.0 5.0 0.00 0.00 0.00 37 1013.0
20220527202811 101 155 0.0 5.0 0.00 0.00 0.00 36 1014.2
20220527202408 101 228 1.0 4.0 0.00 0.00 0.00 37 1013.1
20220527202317 101 184 1.0 3.0 0.00 0.00 0.00 36 1014.2
20220527201901 101 47 1.0 4.0 0.00 0.00 0.00 37 1013.1
20220527201813 101 34 1.0 4.0 0.00 0.00 0.00 36 1014.2
20220527201355 102 250 1.0 5.0 0.00 0.00 0.00 36 1013.2
20220527201316 102 248 1.0 3.0 0.00 0.00 0.00 37 1014.6
20220527200849 102 197 1.0 8.0 0.00 0.00 0.00 36 1013.3
20220527200816 102 230 2.0 5.0 0.00 0.00 0.00 37 1014.6
20220527200344 101 331 2.0 8.0 0.00 0.00 0.00 38 1013.3
20220527200314 101 232 1.0 4.0 0.00 0.00 0.00 38 1014.6
20220527195840 100 226 2.0 8.0 0.00 0.00 0.00 38 1013.4
20220527195812 100 234 2.0 2.0 0.00 0.00 0.00 38 1014.6
20220527195332 100 248 1.0 7.0 0.00 0.00 0.00 37 1013.4
20220527195314 100 235 4.0 5.0 0.00 0.00 0.00 39 1014.6
20220527194826 100 58 1.0 4.0 0.00 0.00 0.00 38 1013.5
20220527194812 100 72 1.0 2.0 0.00 0.00 0.00 38 1014.6
20220527194320 100 59 1.0 7.0 0.00 0.00 0.00 37 1013.6
20220527194318 100 82 2.0 4.0 0.00 0.00 0.00 37 1014.9
20220527193815 101 231 1.0 7.0 0.00 0.00 0.00 37 1013.7
20220527193811 101 231 0.0 7.0 0.00 0.00 0.00 37 1014.9
20220527193314 101 167 1.0 2.0 0.00 0.00 0.00 38 1014.9
20220527193308 101 309 1.0 7.0 0.00 0.00 0.00 38 1013.8
20220527192810 100 214 3.0 7.0 0.00 0.00 0.00 38 1014.9
20220527192808 100 199 2.0 7.0 0.00 0.00 0.00 38 1013.8
20220527192316 100 233 0.0 4.0 0.00 0.00 0.00 38 1014.9
20220527192255 100 233 2.0 5.0 0.00 0.00 0.00 38 1013.9
20220527191919 100 259 1.0 3.0 0.00 0.00 0.00 39 1015.2
20220527191750 100 182 2.0 10.0 0.00 0.00 0.00 39 1013.9
20220527191313 101 66 2.0 7.0 0.00 0.00 0.00 37 1015.2
20220527191244 101 53 1.0 10.0 0.00 0.00 0.00 37 1014.1
20220527190916 101 153 0.0 1.0 0.00 0.00 0.00 39 1015.2
20220527190740 100 153 1.0 5.0 0.00 0.00 0.00 39 1014.0
20220527190313 100 27 0.0 5.0 0.00 0.00 0.00 40 1015.2
20220527190232 100 25 1.0 5.0 0.00 0.00 0.00 40 1014.1
20220527185812 99 237 1.0 2.0 0.00 0.00 0.00 42 1015.6
20220527185726 99 234 1.0 5.0 0.00 0.00 0.00 41 1014.3
20220527185421 98 64 2.0 3.0 0.00 0.00 0.00 41 1015.6
20220527185220 98 205 1.0 5.0 0.00 0.00 0.00 40 1014.4
20220527184736 98 207 0.0 3.0 0.00 0.00 0.00 42 1015.6
20220527184713 98 213 1.0 4.0 0.00 0.00 0.00 42 1014.4
20220527184242 98 240 0.0 3.0 0.00 0.00 0.00 43 1015.9
20220527184216 98 242 1.0 4.0 0.00 0.00 0.00 43 1014.7
20220527183737 97 218 3.0 3.0 0.00 0.00 0.00 44 1015.9
20220527183714 97 266 1.0 4.0 0.00 0.00 0.00 44 1014.7
20220527183239 98 90 3.0 3.0 0.00 0.00 0.00 45 1015.9
20220527183216 98 97 1.0 6.0 0.00 0.00 0.00 45 1014.8
20220527182715 97 85 0.0 1.0 0.00 0.00 0.00 46 1015.9
20220527182712 97 85 1.0 6.0 0.00 0.00 0.00 46 1014.8
20220527182213 96 336 1.0 1.0 0.00 0.00 0.00 47 1016.3
20220527182210 96 327 2.0 9.0 0.00 0.00 0.00 47 1014.9
20220527181816 96 238 8.0 9.0 0.00 0.00 0.00 47 1016.3
20220527181710 96 234 2.0 9.0 0.00 0.00 0.00 47 1015.0
20220527181213 95 228 4.0 6.0 0.00 0.00 0.00 46 1016.3
20220527181211 95 235 3.0 8.0 0.00 0.00 0.00 46 1015.1
20220527180711 96 200 4.0 7.0 0.00 0.00 0.00 47 1016.3
20220527180709 96 229 2.0 7.0 0.00 0.00 0.00 46 1015.2
20220527180216 96 163 1.0 4.0 0.00 0.00 0.00 48 1016.3
20220527180208 96 163 2.0 8.0 0.00 0.00 0.00 48 1015.2
20220527175717 95 230 3.0 4.0 0.00 0.00 0.00 49 1016.3
20220527175710 95 234 2.0 9.0 0.00 0.00 0.00 49 1015.2
20220527175214 96 232 3.0 9.0 0.00 0.00 0.00 45 1016.3
20220527175209 96 232 2.0 9.0 0.00 0.00 0.00 45 1015.3
20220527174712 96 250 1.0 4.0 0.00 0.00 0.00 49 1015.4
20220527174212 95 162 1.0 2.0 0.00 0.00 0.00 51 1016.6
20220527174209 95 83 1.0 3.0 0.00 0.00 0.00 51 1015.4
20220527173715 94 86 1.0 2.0 0.00 0.00 0.00 51 1016.6
20220527173710 94 86 2.0 6.0 0.00 0.00 0.00 50 1015.4
20220527173211 94 79 2.0 7.0 0.00 0.00 0.00 51 1015.5
20220527172814 95 100 6.0 7.0 0.00 0.00 0.00 51 1016.6
20220527172712 94 69 1.0 7.0 0.00 0.00 0.00 51 1015.6
20220527172214 94 203 0.0 2.0 0.00 0.00 0.00 53 1016.6
20220527171712 93 232 2.0 2.0 0.00 0.00 0.00 53 1016.9
20220527171706 93 232 1.0 6.0 0.00 0.00 0.00 53 1015.7
20220527171315 92 240 0.0 1.0 0.00 0.00 0.00 54 1016.9
20220527171200 92 240 2.0 8.0 0.00 0.00 0.00 54 1015.7
20220527170717 92 223 3.0 3.0 0.00 0.00 0.00 54 1016.9
20220527170655 92 228 2.0 8.0 0.00 0.00 0.00 54 1015.7
20220527170217 92 213 2.0 4.0 0.00 0.00 0.00 56 1016.9
20220527170148 92 279 2.0 7.0 0.00 0.00 0.00 56 1015.8
20220527165713 92 267 1.0 6.0 0.00 0.00 0.00 56 1016.9
20220527165641 92 238 2.0 8.0 0.00 0.00 0.00 56 1015.9
20220527165225 92 246 3.0 8.0 0.00 0.00 0.00 55 1017.3
20220527165135 92 217 1.0 8.0 0.00 0.00 0.00 57 1015.9
20220527164715 92 182 0.0 4.0 0.00 0.00 0.00 56 1017.3
20220527164629 92 272 1.0 8.0 0.00 0.00 0.00 56 1016.0
20220527164214 91 53 0.0 1.0 0.00 0.00 0.00 59 1017.3
20220527164123 91 53 2.0 7.0 0.00 0.00 0.00 58 1016.0
20220527163713 91 226 1.0 7.0 0.00 0.00 0.00 57 1017.3
20220527163617 91 164 1.0 7.0 0.00 0.00 0.00 58 1015.9
20220527163214 91 222 3.0 3.0 0.00 0.00 0.00 59 1017.3
20220527163111 91 234 1.0 5.0 0.00 0.00 0.00 59 1015.9
20220527162712 90 165 0.0 4.0 0.00 0.00 0.00 60 1017.3
20220527162606 90 202 1.0 5.0 0.00 0.00 0.00 60 1016.0
20220527162211 90 215 1.0 3.0 0.00 0.00 0.00 62 1017.3
20220527162101 90 265 1.0 6.0 0.00 0.00 0.00 62 1016.1
20220527161718 89 241 0.0 1.0 0.00 0.00 0.00 62 1017.3
20220527161553 89 255 2.0 6.0 0.00 0.00 0.00 63 1016.0
20220527161211 89 223 6.0 6.0 0.00 0.00 0.00 62 1017.3
20220527161050 89 275 2.0 7.0 0.00 0.00 0.00 62 1016.1
20220527160716 88 87 1.0 2.0 0.00 0.00 0.00 62 1017.3
20220527160544 88 274 2.0 7.0 0.00 0.00 0.00 63 1016.1
20220527160215 88 229 4.0 7.0 0.00 0.00 0.00 64 1017.3
20220527160035 88 213 1.0 6.0 0.00 0.00 0.00 63 1016.1
20220527155714 88 238 3.0 3.0 0.00 0.00 0.00 63 1017.3
20220527155529 88 277 1.0 5.0 0.00 0.00 0.00 65 1016.2
20220527155212 87 246 1.0 2.0 0.00 0.00 0.00 66 1017.3
20220527155025 87 235 2.0 5.0 0.00 0.00 0.00 67 1016.1
20220527154712 87 24 2.0 3.0 0.00 0.00 0.00 67 1017.3
20220527154519 87 275 1.0 5.0 0.00 0.00 0.00 66 1016.1
20220527154211 87 245 2.0 5.0 0.00 0.00 0.00 66 1017.3
20220527154012 87 265 1.0 4.0 0.00 0.00 0.00 68 1016.1
20220527153814 86 282 0.0 1.0 0.00 0.00 0.00 68 1017.3
20220527153505 86 277 1.0 5.0 0.00 0.00 0.00 68 1016.2
20220527153138 86 242 1.0 4.0 0.00 0.00 0.00 68 1017.3
20220527152959 86 290 1.0 5.0 0.00 0.00 0.00 68 1016.2
20220527152712 86 251 2.0 5.0 0.00 0.00 0.00 69 1017.3
20220527152454 86 273 1.0 5.0 0.00 0.00 0.00 69 1016.2
20220527152136 86 285 1.0 5.0 0.00 0.00 0.00 70 1017.3
20220527151948 85 213 1.0 4.0 0.00 0.00 0.00 72 1016.3
20220527151640 85 232 0.0 3.0 0.00 0.00 0.00 74 1017.6
20220527151441 85 225 1.0 4.0 0.00 0.00 0.00 73 1016.3
20220527151119 84 73 0.0 2.0 0.00 0.00 0.00 75 1017.3
20220527150935 84 64 1.0 3.0 0.00 0.00 0.00 75 1016.3
20220527150617 84 244 1.0 3.0 0.00 0.00 0.00 75 1017.3
20220527150429 84 173 1.0 3.0 0.00 0.00 0.00 76 1016.2
20220527150114 83 338 0.0 2.0 0.00 0.00 0.00 76 1017.6
20220527145923 83 240 1.0 4.0 0.00 0.00 0.00 76 1016.3
20220527145612 83 220 1.0 1.0 0.00 0.00 0.00 77 1017.3
20220527145417 83 268 1.0 5.0 0.00 0.00 0.00 76 1016.3
20220527145113 83 236 0.0 3.0 0.00 0.00 0.00 78 1017.6
20220527144911 83 22 1.0 5.0 0.00 0.00 0.00 78 1016.4
20220527144616 83 51 1.0 3.0 0.00 0.00 0.00 78 1017.6
20220527144405 83 230 1.0 5.0 0.00 0.00 0.00 78 1016.3
20220527144111 83 213 1.0 2.0 0.00 0.00 0.00 78 1017.6
20220527143900 83 239 1.0 5.0 0.00 0.00 0.00 79 1016.3
20220527143613 82 202 2.0 2.0 0.00 0.00 0.00 80 1017.3
20220527143354 82 19 1.0 2.0 0.00 0.00 0.00 81 1016.2
20220527143113 82 49 1.0 1.0 0.00 0.00 0.00 81 1017.3
20220527142847 81 225 1.0 2.0 0.00 0.00 0.00 82 1016.2
20220527142617 81 286 0.0 2.0 0.00 0.00 0.00 83 1017.3
20220527142341 81 237 1.0 4.0 0.00 0.00 0.00 83 1016.2
20220527142115 81 238 2.0 2.0 0.00 0.00 0.00 83 1017.3
20220527141835 80 253 1.0 4.0 0.00 0.00 0.00 84 1016.2
20220527141619 80 215 2.0 2.0 0.00 0.00 0.00 85 1017.3
20220527141329 80 208 1.0 3.0 0.00 0.00 0.00 85 1016.2
20220527141111 80 254 0.0 3.0 0.00 0.00 0.00 85 1017.3
20220527140822 80 279 0.0 2.0 0.00 0.00 0.00 87 1016.2
20220527140614 79 211 0.0 1.0 0.00 0.00 0.00 87 1017.3
20220527140319 79 241 0.0 2.0 0.00 0.00 0.00 88 1016.2
20220527140111 79 269 0.0 0.0 0.00 0.00 0.00 88 1017.3
20220527135819 78 236 1.0 4.0 0.00 0.00 0.00 89 1016.1
20220527135613 78 229 1.0 2.0 0.00 0.00 0.00 89 1017.3
20220527135318 78 219 1.0 4.0 0.00 0.00 0.00 90 1016.1
20220527135115 78 213 0.0 2.0 0.00 0.00 0.00 90 1017.3
20220527134819 77 242 0.0 2.0 0.00 0.00 0.00 91 1016.0
20220527134622 77 271 0.0 1.0 0.00 0.00 0.00 91 1017.3
20220527134319 77 274 0.0 2.0 0.00 0.00 0.00 91 1016.0
20220527134112 77 238 0.0 1.0 0.00 0.00 0.00 92 1017.3
20220527133821 77 240 1.0 2.0 0.00 0.00 0.00 92 1015.9
20220527133615 77 231 2.0 2.0 0.00 0.00 0.00 92 1017.3
20220527133317 76 232 1.0 4.0 0.00 0.00 0.00 92 1015.9
20220527133110 77 232 0.0 2.0 0.00 0.00 0.00 92 1017.3
20220527132815 76 241 0.0 4.0 0.00 0.00 0.00 92 1015.8
20220527132616 77 202 2.0 4.0 0.00 0.00 0.00 92 1016.9
20220527132316 77 261 0.0 2.0 0.00 0.00 0.00 92 1015.8
20220527132109 77 269 0.0 0.0 0.00 0.00 0.00 92 1016.9
20220527131815 77 331 0.0 4.0 0.00 0.00 0.00 93 1015.7
20220527131613 77 245 0.0 1.0 0.00 0.00 0.00 93 1016.9
20220527131317 76 38 1.0 4.0 0.00 0.00 0.00 93 1015.7
20220527131112 76 28 2.0 2.0 0.00 0.00 0.00 94 1016.9
20220527130815 76 15 1.0 3.0 0.00 0.00 0.00 93 1015.6
20220527130618 76 355 2.0 2.0 0.00 0.00 0.00 94 1016.9
20220527130317 76 71 0.0 3.0 0.00 0.00 0.00 95 1015.6
20220527130138 75 346 0.0 3.0 0.00 0.00 0.00 94 1016.6
20220527125813 75 348 0.0 0.0 0.00 0.00 0.00 95 1015.5
20220527125638 75 14 0.0 0.0 0.00 0.00 0.00 94 1016.6
20220527125313 75 235 0.0 0.0 0.00 0.00 0.00 95 1015.5
20220527125135 75 55 0.0 0.0 0.00 0.00 0.00 95 1016.6
20220527124812 75 55 0.0 0.0 0.00 0.00 0.00 95 1015.5
20220527124642 75 55 0.0 0.0 0.00 0.00 0.00 95 1016.6
20220527124314 74 55 0.0 0.0 0.00 0.00 0.00 96 1015.4
20220527124141 74 55 0.0 0.0 0.00 0.00 0.00 96 1016.6
20220527123815 74 54 0.0 0.0 0.00 0.00 0.00 96 1015.3
20220527123640 74 55 0.0 0.0 0.00 0.00 0.00 96 1016.6
20220527123308 73 58 0.0 0.0 0.00 0.00 0.00 96 1015.3
20220527123139 73 58 0.0 0.0 0.00 0.00 0.00 96 1016.3
20220527122803 73 56 0.0 2.0 0.00 0.00 0.00 96 1015.4
20220527122640 73 55 0.0 0.0 0.00 0.00 0.00 96 1016.6
20220527122303 73 59 0.0 2.0 0.00 0.00 0.00 96 1015.3
20220527122144 73 63 1.0 1.0 0.00 0.00 0.00 96 1016.6
20220527121804 73 106 0.0 0.0 0.00 0.00 0.00 96 1015.4
20220527121642 73 203 0.0 0.0 0.00 0.00 0.00 96 1016.6
20220527121301 73 203 0.0 0.0 0.00 0.00 0.00 96 1015.2
20220527121140 73 203 0.0 0.0 0.00 0.00 0.00 96 1016.3
20220527120759 73 203 0.0 0.0 0.00 0.00 0.00 96 1015.0
20220527120637 73 203 0.0 0.0 0.00 0.00 0.00 96 1016.3
20220527120256 73 203 0.0 0.0 0.00 0.00 0.00 96 1015.0
20220527120138 73 203 0.0 0.0 0.00 0.00 0.00 96 1016.3
20220527115753 73 203 0.0 0.0 0.00 0.00 0.00 96 1015.0
20220527115712 73 203 0.0 0.0 0.00 0.00 0.00 96 1015.9
20220527115252 73 203 0.0 0.0 0.00 0.00 0.00 96 1015.0
20220527115141 73 203 0.0 0.0 0.00 0.00 0.00 96 1016.3
20220527114749 73 203 0.0 0.0 0.00 0.00 0.00 95 1014.9
20220527114643 73 203 0.0 0.0 0.00 0.00 0.00 95 1016.3
20220527114250 73 203 0.0 0.0 0.00 0.00 0.00 95 1014.9
20220527114136 73 203 0.0 0.0 0.00 0.00 0.00 95 1015.9
20220527113749 73 203 0.0 0.0 0.00 0.00 0.00 95 1014.9
20220527113643 73 203 0.0 0.0 0.00 0.00 0.00 95 1015.9
20220527113246 73 203 0.0 0.0 0.00 0.00 0.00 95 1014.9
20220527113141 72 203 0.0 0.0 0.00 0.00 0.00 95 1015.9
20220527112744 73 203 0.0 0.0 0.00 0.00 0.00 95 1014.8
20220527112635 73 203 0.0 0.0 0.00 0.00 0.00 95 1015.9
20220527112240 73 203 0.0 0.0 0.00 0.00 0.00 95 1014.8
20220527112140 73 203 0.0 0.0 0.00 0.00 0.00 95 1015.9
20220527111741 73 203 0.0 0.0 0.00 0.00 0.00 95 1014.7
20220527111638 73 203 0.0 0.0 0.00 0.00 0.00 95 1015.9
20220527111240 73 203 0.0 1.0 0.00 0.00 0.00 95 1014.7
20220527111141 73 203 0.0 0.0 0.00 0.00 0.00 95 1015.9
20220527110738 73 203 0.0 1.0 0.00 0.00 0.00 95 1014.6
20220527110717 73 203 0.0 0.0 0.00 0.00 0.00 95 1015.6
20220527110239 73 217 0.0 3.0 0.00 0.00 0.00 95 1014.6
20220527110217 73 217 0.0 0.0 0.00 0.00 0.00 95 1015.6
20220527105732 74 225 1.0 3.0 0.00 0.00 0.00 95 1014.4
20220527105713 74 250 0.0 3.0 0.00 0.00 0.00 95 1015.6
20220527105243 74 219 0.0 1.0 0.00 0.00 0.00 95 1015.6
20220527105233 74 219 0.0 7.0 0.00 0.00 0.00 95 1014.4
20220527104812 73 254 3.0 6.0 0.00 0.00 0.00 95 1015.6
20220527104733 73 219 0.0 7.0 0.00 0.00 0.00 95 1014.4
20220527104317 73 227 0.0 0.0 0.00 0.00 0.00 95 1015.6
20220527104231 73 208 1.0 4.0 0.00 0.00 0.00 95 1014.3
20220527103745 73 238 1.0 1.0 0.00 0.00 0.00 95 1015.6
20220527103730 73 217 1.0 4.0 0.00 0.00 0.00 95 1014.3
20220527103233 73 238 1.0 4.0 0.00 0.00 0.00 95 1014.2
20220527103137 73 242 1.0 2.0 0.00 0.00 0.00 95 1015.6
20220527102731 73 207 1.0 4.0 0.00 0.00 0.00 95 1014.1
20220527102643 73 239 3.0 4.0 0.00 0.00 0.00 95 1015.2
20220527102230 73 215 1.0 3.0 0.00 0.00 0.00 95 1014.1
20220527102140 73 248 1.0 2.0 0.00 0.00 0.00 95 1015.2
20220527101731 73 236 1.0 4.0 0.00 0.00 0.00 95 1014.1
20220527101635 73 244 0.0 1.0 0.00 0.00 0.00 95 1015.2
20220527101232 73 244 1.0 4.0 0.00 0.00 0.00 95 1014.1
20220527101137 73 227 1.0 2.0 0.00 0.00 0.00 95 1015.2
20220527100729 73 226 1.0 3.0 0.00 0.00 0.00 95 1014.1
20220527100634 73 238 2.0 3.0 0.00 0.00 0.00 95 1015.2
20220527100229 73 232 0.0 2.0 0.00 0.00 0.00 95 1014.0
20220527100144 73 223 0.0 1.0 0.00 0.00 0.00 95 1015.2
20220527095731 73 221 1.0 4.0 0.00 0.00 0.00 94 1014.0
20220527095635 73 240 1.0 1.0 0.00 0.00 0.00 95 1015.2
20220527095232 73 238 2.0 6.0 0.00 0.00 0.00 95 1013.9
20220527095137 73 246 0.0 3.0 0.00 0.00 0.00 95 1014.9
20220527094723 73 248 3.0 6.0 0.00 0.00 0.00 95 1013.9
20220527094638 73 230 3.0 6.0 0.00 0.00 0.00 95 1014.9
20220527094224 73 223 2.0 6.0 0.00 0.00 0.00 94 1013.9
20220527094213 73 210 4.0 6.0 0.00 0.00 0.00 94 1015.2
20220527093726 73 244 2.0 5.0 0.00 0.00 0.00 94 1013.9
20220527093638 73 226 5.0 5.0 0.00 0.00 0.00 94 1014.9
20220527093225 73 236 2.0 5.0 0.00 0.00 0.00 94 1013.8
20220527093143 74 240 1.0 4.0 0.00 0.00 0.00 94 1014.9
20220527092720 74 219 2.0 5.0 0.00 0.00 0.00 94 1013.7
20220527092640 74 257 1.0 3.0 0.00 0.00 0.00 94 1014.9
20220527092220 74 235 2.0 5.0 0.00 0.00 0.00 94 1013.7
20220527092135 74 234 2.0 4.0 0.00 0.00 0.00 94 1014.9
20220527091718 74 253 2.0 5.0 0.00 0.00 0.00 94 1013.7
20220527091637 74 242 1.0 5.0 0.00 0.00 0.00 94 1014.9
20220527091224 74 244 1.0 5.0 0.00 0.00 0.00 94 1013.7
20220527091144 74 228 1.0 2.0 0.00 0.00 0.00 94 1014.9
20220527090720 74 213 1.0 4.0 0.00 0.00 0.00 94 1013.7
20220527090637 74 237 1.0 4.0 0.00 0.00 0.00 94 1014.9
20220527090220 74 207 1.0 4.0 0.00 0.00 0.00 94 1013.6
20220527090135 74 198 1.0 3.0 0.00 0.00 0.00 94 1014.6
20220527085721 74 221 1.0 4.0 0.00 0.00 0.00 94 1013.7
20220527085638 74 258 0.0 4.0 0.00 0.00 0.00 94 1014.9
20220527085218 74 186 1.0 5.0 0.00 0.00 0.00 94 1013.8
20220527085114 74 240 0.0 2.0 0.00 0.00 0.00 94 1014.9
20220527084718 74 233 2.0 5.0 0.00 0.00 0.00 94 1013.8
20220527084611 74 199 0.0 4.0 0.00 0.00 0.00 93 1014.9
20220527084215 74 228 1.0 5.0 0.00 0.00 0.00 93 1013.7
20220527084111 74 219 3.0 4.0 0.00 0.00 0.00 93 1014.9
20220527083712 74 236 1.0 3.0 0.00 0.00 0.00 93 1013.7
20220527083610 74 229 1.0 2.0 0.00 0.00 0.00 93 1014.9
20220527083214 74 234 0.0 3.0 0.00 0.00 0.00 93 1013.9
20220527083111 74 252 0.0 3.0 0.00 0.00 0.00 93 1014.9
20220527082711 74 242 0.0 2.0 0.00 0.00 0.00 93 1013.8
20220527082615 74 238 2.0 2.0 0.00 0.00 0.00 93 1014.9
20220527082213 74 259 1.0 3.0 0.00 0.00 0.00 93 1013.7
20220527082111 74 198 1.0 1.0 0.00 0.00 0.00 93 1014.9
20220527081712 74 251 1.0 3.0 0.00 0.00 0.00 93 1013.7
20220527081616 74 232 1.0 3.0 0.00 0.00 0.00 93 1014.9
20220527081211 74 245 1.0 4.0 0.00 0.00 0.00 92 1013.7
20220527081116 74 270 1.0 3.0 0.00 0.00 0.00 92 1014.9
20220527080711 74 227 2.0 4.0 0.00 0.00 0.00 92 1013.7
20220527080618 74 242 2.0 4.0 0.00 0.00 0.00 92 1014.9
20220527080211 74 239 2.0 6.0 0.00 0.00 0.00 92 1013.7
20220527080112 74 254 2.0 4.0 0.00 0.00 0.00 92 1014.9
20220527075713 74 271 2.0 6.0 0.00 0.00 0.00 92 1013.7
20220527075612 74 227 1.0 5.0 0.00 0.00 0.00 92 1014.9
20220527075213 74 244 2.0 5.0 0.00 0.00 0.00 92 1013.7
20220527075113 74 234 2.0 4.0 0.00 0.00 0.00 92 1014.9
20220527074708 74 267 2.0 5.0 0.00 0.00 0.00 92 1013.8
20220527074613 74 236 0.0 3.0 0.00 0.00 0.00 92 1014.9
20220527074206 74 259 1.0 4.0 0.00 0.00 0.00 92 1013.8
20220527074114 74 238 2.0 3.0 0.00 0.00 0.00 92 1014.9
20220527073705 74 247 1.0 4.0 0.00 0.00 0.00 92 1013.8
20220527073612 74 235 2.0 2.0 0.00 0.00 0.00 92 1014.9
20220527073205 74 256 2.0 4.0 0.00 0.00 0.00 91 1013.8
20220527073114 74 229 0.0 2.0 0.00 0.00 0.00 91 1014.9
20220527072706 74 257 2.0 6.0 0.00 0.00 0.00 91 1013.8
20220527072610 74 215 2.0 3.0 0.00 0.00 0.00 91 1014.9
20220527072206 74 184 2.0 6.0 0.00 0.00 0.00 91 1013.8
20220527072110 75 230 2.0 3.0 0.00 0.00 0.00 91 1014.9
20220527071705 74 243 1.0 4.0 0.00 0.00 0.00 91 1013.8
20220527071615 75 261 2.0 4.0 0.00 0.00 0.00 91 1014.9
20220527071213 75 261 1.0 3.0 0.00 0.00 0.00 91 1014.9
20220527071207 74 254 2.0 4.0 0.00 0.00 0.00 91 1013.8
20220527070705 75 227 2.0 4.0 0.00 0.00 0.00 91 1013.8
20220527070613 75 234 1.0 4.0 0.00 0.00 0.00 91 1014.9
20220527070206 75 243 1.0 3.0 0.00 0.00 0.00 90 1013.7
20220527070111 75 238 2.0 3.0 0.00 0.00 0.00 90 1014.9
20220527065706 75 243 1.0 3.0 0.00 0.00 0.00 90 1013.9
20220527065613 75 223 1.0 3.0 0.00 0.00 0.00 90 1014.9
20220527065204 75 216 0.0 3.0 0.00 0.00 0.00 90 1013.8
20220527065111 75 223 1.0 2.0 0.00 0.00 0.00 90 1015.2
20220527064708 75 232 1.0 3.0 0.00 0.00 0.00 90 1013.9
20220527064620 75 231 0.0 1.0 0.00 0.00 0.00 90 1015.2
20220527064207 75 244 1.0 3.0 0.00 0.00 0.00 90 1013.8
20220527064114 75 232 0.0 0.0 0.00 0.00 0.00 90 1014.9
20220527063705 75 209 1.0 4.0 0.00 0.00 0.00 89 1013.9
20220527063613 75 242 0.0 3.0 0.00 0.00 0.00 89 1014.9
20220527063207 75 266 1.0 4.0 0.00 0.00 0.00 89 1013.9
20220527063111 75 232 0.0 2.0 0.00 0.00 0.00 89 1014.9
20220527062705 75 241 1.0 4.0 0.00 0.00 0.00 89 1013.9
20220527062628 75 249 2.0 4.0 0.00 0.00 0.00 89 1015.2
20220527062204 75 213 0.0 3.0 0.00 0.00 0.00 89 1013.9
20220527062112 75 221 0.0 1.0 0.00 0.00 0.00 89 1015.2
20220527061703 75 234 1.0 3.0 0.00 0.00 0.00 88 1014.0
20220527061611 75 250 0.0 2.0 0.00 0.00 0.00 88 1015.2
20220527061216 75 239 1.0 4.0 0.00 0.00 0.00 88 1013.9
20220527061112 75 229 1.0 2.0 0.00 0.00 0.00 88 1015.2
20220527060701 76 229 1.0 4.0 0.00 0.00 0.00 88 1014.0
20220527060615 76 232 1.0 2.0 0.00 0.00 0.00 88 1015.2
20220527060201 76 240 1.0 3.0 0.00 0.00 0.00 88 1014.0
20220527060111 76 223 2.0 3.0 0.00 0.00 0.00 88 1015.2
20220527055655 76 184 0.0 2.0 0.00 0.00 0.00 88 1014.0
20220527055614 76 220 1.0 2.0 0.00 0.00 0.00 87 1015.2
20220527055155 76 198 0.0 3.0 0.00 0.00 0.00 87 1013.9
20220527055110 76 190 1.0 2.0 0.00 0.00 0.00 87 1015.2
20220527054652 76 233 0.0 3.0 0.00 0.00 0.00 87 1014.0
20220527054616 76 233 0.0 3.0 0.00 0.00 0.00 87 1015.2
20220527054152 76 239 0.0 2.0 0.00 0.00 0.00 87 1013.9
20220527054111 76 230 0.0 1.0 0.00 0.00 0.00 87 1015.2
20220527053650 76 242 0.0 4.0 0.00 0.00 0.00 87 1013.9
20220527053614 76 259 1.0 2.0 0.00 0.00 0.00 87 1015.2
20220527053154 76 252 1.0 4.0 0.00 0.00 0.00 87 1013.8
20220527053111 76 252 0.0 2.0 0.00 0.00 0.00 87 1015.2
20220527052652 76 239 1.0 4.0 0.00 0.00 0.00 86 1013.8
20220527052613 76 240 0.0 1.0 0.00 0.00 0.00 86 1014.9
20220527052150 76 235 1.0 4.0 0.00 0.00 0.00 86 1013.8
20220527052111 76 224 1.0 4.0 0.00 0.00 0.00 86 1014.9
20220527051653 76 221 0.0 1.0 0.00 0.00 0.00 86 1013.7
20220527051616 76 201 0.0 0.0 0.00 0.00 0.00 86 1014.9
20220527051148 76 194 0.0 5.0 0.00 0.00 0.00 85 1013.7
20220527051112 77 234 0.0 0.0 0.00 0.00 0.00 85 1014.9
20220527050646 76 210 0.0 5.0 0.00 0.00 0.00 85 1013.7
20220527050554 77 209 0.0 0.0 0.00 0.00 0.00 85 1014.9
20220527050144 76 245 0.0 3.0 0.00 0.00 0.00 85 1013.8
20220527050016 77 246 0.0 3.0 0.00 0.00 0.00 85 1014.9
20220527045644 76 72 0.0 2.0 0.00 0.00 0.00 85 1013.8
20220527045513 77 239 0.0 2.0 0.00 0.00 0.00 85 1014.9
20220527045145 76 254 0.0 2.0 0.00 0.00 0.00 85 1013.8
20220527045012 77 217 0.0 1.0 0.00 0.00 0.00 84 1014.9
20220527044646 77 235 0.0 3.0 0.00 0.00 0.00 84 1013.8
20220527044512 77 231 2.0 2.0 0.00 0.00 0.00 84 1014.9
20220527044145 77 196 0.0 3.0 0.00 0.00 0.00 84 1013.8
20220527044015 77 242 0.0 1.0 0.00 0.00 0.00 84 1014.9
20220527043645 77 250 0.0 3.0 0.00 0.00 0.00 84 1013.6
20220527043511 77 202 0.0 2.0 0.00 0.00 0.00 84 1014.9
20220527043145 77 196 1.0 3.0 0.00 0.00 0.00 84 1013.6
20220527043013 77 234 0.0 3.0 0.00 0.00 0.00 84 1014.6
20220527042642 77 248 1.0 3.0 0.00 0.00 0.00 83 1013.5
20220527042512 77 235 0.0 2.0 0.00 0.00 0.00 83 1014.6
20220527042143 77 238 1.0 5.0 0.00 0.00 0.00 83 1013.5
20220527042012 77 267 1.0 3.0 0.00 0.00 0.00 83 1014.6
20220527041641 77 242 1.0 5.0 0.00 0.00 0.00 83 1013.5
20220527041441 77 259 0.0 5.0 0.00 0.00 0.00 83 1014.6
20220527041142 77 246 1.0 3.0 0.00 0.00 0.00 83 1013.4
20220527040943 77 234 1.0 3.0 0.00 0.00 0.00 83 1014.6
20220527040642 77 255 0.0 3.0 0.00 0.00 0.00 83 1013.5
20220527040414 77 239 0.0 1.0 0.00 0.00 0.00 83 1014.6
20220527040141 77 218 1.0 3.0 0.00 0.00 0.00 82 1013.5
20220527035912 77 211 0.0 1.0 0.00 0.00 0.00 82 1014.6
20220527035641 78 205 1.0 3.0 0.00 0.00 0.00 82 1013.4
20220527035411 78 213 0.0 3.0 0.00 0.00 0.00 82 1014.6
20220527035142 78 237 1.0 4.0 0.00 0.00 0.00 82 1013.4
20220527034911 78 229 1.0 2.0 0.00 0.00 0.00 82 1014.6
20220527034638 78 229 1.0 4.0 0.00 0.00 0.00 81 1013.3
20220527034410 78 210 0.0 2.0 0.00 0.00 0.00 81 1014.6
20220527034139 78 249 1.0 3.0 0.00 0.00 0.00 81 1013.3
20220527034015 78 257 0.0 3.0 0.00 0.00 0.00 81 1014.6
20220527033640 78 204 2.0 8.0 0.00 0.00 0.00 81 1013.3
20220527033413 78 221 1.0 2.0 0.00 0.00 0.00 80 1014.6
20220527033136 78 240 2.0 8.0 0.00 0.00 0.00 80 1013.3
20220527032910 78 235 4.0 4.0 0.00 0.00 0.00 80 1014.6
20220527032629 78 238 1.0 5.0 0.00 0.00 0.00 80 1013.3
20220527032414 78 242 0.0 3.0 0.00 0.00 0.00 79 1014.6
20220527032122 78 221 2.0 6.0 0.00 0.00 0.00 79 1013.2
20220527031910 79 244 1.0 3.0 0.00 0.00 0.00 79 1014.6
20220527031615 79 246 2.0 6.0 0.00 0.00 0.00 78 1013.2
20220527031409 79 261 1.0 6.0 0.00 0.00 0.00 78 1014.2
20220527031111 79 242 1.0 5.0 0.00 0.00 0.00 78 1013.1
20220527030914 79 257 0.0 3.0 0.00 0.00 0.00 78 1014.2
20220527030603 79 226 2.0 5.0 0.00 0.00 0.00 77 1013.0
20220527030415 79 240 0.0 5.0 0.00 0.00 0.00 77 1014.2
20220527030103 79 242 2.0 8.0 0.00 0.00 0.00 77 1013.0
20220527025928 79 242 2.0 2.0 0.00 0.00 0.00 77 1014.2
20220527025603 79 219 2.0 8.0 0.00 0.00 0.00 76 1012.9
20220527025412 79 209 2.0 8.0 0.00 0.00 0.00 76 1013.9
20220527025101 80 225 1.0 4.0 0.00 0.00 0.00 76 1012.8
20220527024916 80 255 1.0 4.0 0.00 0.00 0.00 75 1013.9
20220527024601 80 249 1.0 5.0 0.00 0.00 0.00 75 1012.8
20220527024412 80 227 1.0 2.0 0.00 0.00 0.00 75 1013.9
20220527024101 80 186 1.0 5.0 0.00 0.00 0.00 74 1012.7
20220527023911 80 265 1.0 2.0 0.00 0.00 0.00 74 1013.9
20220527023559 80 270 1.0 4.0 0.00 0.00 0.00 74 1012.7
20220527023415 80 242 1.0 4.0 0.00 0.00 0.00 74 1013.9
20220527023101 80 202 1.0 3.0 0.00 0.00 0.00 73 1012.7
20220527023010 80 225 1.0 2.0 0.00 0.00 0.00 73 1013.9
20220527022559 81 264 1.0 8.0 0.00 0.00 0.00 72 1012.7
20220527022413 81 198 1.0 2.0 0.00 0.00 0.00 72 1013.9
20220527022058 81 229 1.0 8.0 0.00 0.00 0.00 72 1012.6
20220527021916 81 202 1.0 7.0 0.00 0.00 0.00 71 1013.9
20220527021557 81 254 1.0 3.0 0.00 0.00 0.00 71 1012.6
20220527021409 81 219 0.0 3.0 0.00 0.00 0.00 71 1013.9
20220527021100 81 245 1.0 4.0 0.00 0.00 0.00 70 1012.6
20220527020914 81 237 0.0 1.0 0.00 0.00 0.00 70 1013.9
20220527020556 81 245 1.0 4.0 0.00 0.00 0.00 70 1012.5
20220527020414 82 215 0.0 4.0 0.00 0.00 0.00 70 1013.5
20220527020057 82 259 0.0 3.0 0.00 0.00 0.00 70 1012.4
20220527015929 82 262 0.0 1.0 0.00 0.00 0.00 69 1013.5
20220527015600 82 204 1.0 6.0 0.00 0.00 0.00 69 1012.2
20220527015413 82 221 0.0 3.0 0.00 0.00 0.00 69 1013.5
20220527015052 82 215 1.0 6.0 0.00 0.00 0.00 69 1012.2
20220527014914 82 205 1.0 6.0 0.00 0.00 0.00 69 1013.2
20220527014553 83 260 1.0 4.0 0.00 0.00 0.00 68 1012.1
20220527014413 83 244 0.0 2.0 0.00 0.00 0.00 68 1013.2
20220527014053 83 183 1.0 4.0 0.00 0.00 0.00 67 1012.1
20220527013911 83 263 1.0 4.0 0.00 0.00 0.00 67 1013.2
20220527013550 83 257 1.0 4.0 0.00 0.00 0.00 67 1012.0
20220527013415 84 197 0.0 2.0 0.00 0.00 0.00 67 1013.2
20220527013051 84 195 1.0 5.0 0.00 0.00 0.00 66 1011.9
20220527012912 84 217 2.0 4.0 0.00 0.00 0.00 66 1013.2
20220527012553 84 168 1.0 5.0 0.00 0.00 0.00 66 1011.9
20220527012418 84 219 2.0 5.0 0.00 0.00 0.00 66 1013.2
20220527012049 85 152 1.0 4.0 0.00 0.00 0.00 65 1011.8
20220527011945 85 200 1.0 4.0 0.00 0.00 0.00 65 1012.9
20220527011550 85 244 1.0 4.0 0.00 0.00 0.00 64 1011.6
20220527011416 86 221 0.0 4.0 0.00 0.00 0.00 64 1012.9
20220527011051 86 195 0.0 2.0 0.00 0.00 0.00 64 1011.6
20220527010914 86 214 0.0 2.0 0.00 0.00 0.00 64 1012.9
20220527010550 86 202 1.0 4.0 0.00 0.00 0.00 64 1011.5
20220527010419 86 244 0.0 1.0 0.00 0.00 0.00 63 1012.5
20220527010108 87 228 1.0 5.0 0.00 0.00 0.00 63 1011.4
20220527005912 87 280 0.0 2.0 0.00 0.00 0.00 62 1012.5
20220527005548 87 250 1.0 5.0 0.00 0.00 0.00 62 1011.3
20220527005418 87 293 1.0 5.0 0.00 0.00 0.00 62 1012.5
20220527005048 88 203 1.0 3.0 0.00 0.00 0.00 61 1011.3
20220527004914 88 199 1.0 2.0 0.00 0.00 0.00 61 1012.5
20220527004546 88 269 1.0 3.0 0.00 0.00 0.00 61 1011.2
20220527004411 88 280 0.0 2.0 0.00 0.00 0.00 60 1012.2
20220527004048 89 236 1.0 3.0 0.00 0.00 0.00 60 1011.1
20220527003913 89 223 1.0 2.0 0.00 0.00 0.00 60 1012.2
20220527003548 89 230 1.0 3.0 0.00 0.00 0.00 60 1011.0
20220527003444 89 206 1.0 1.0 0.00 0.00 0.00 60 1012.2
20220527003048 89 240 1.0 3.0 0.00 0.00 0.00 60 1010.9
20220527002911 90 257 0.0 1.0 0.00 0.00 0.00 59 1012.2
20220527002547 90 165 1.0 3.0 0.00 0.00 0.00 59 1010.9
20220527002420 90 116 0.0 1.0 0.00 0.00 0.00 59 1011.9
20220527002048 90 248 1.0 3.0 0.00 0.00 0.00 58 1010.8